createdAt,value
2023-02-16T00:03:38.093Z,95.30
2023-02-16T00:18:41.473Z,94.72
2023-02-16T00:33:44.888Z,95.49
2023-02-16T00:48:48.226Z,95.42
2023-02-16T01:03:51.943Z,96.70
2023-02-16T01:18:55.273Z,96.77
2023-02-16T01:33:58.613Z,96.21
2023-02-16T01:49:01.800Z,96.40
2023-02-16T02:04:40.695Z,96.85
2023-02-16T02:20:13.552Z,97.68
2023-02-16T02:35:23.392Z,98.27
2023-02-16T02:51:22.906Z,97.95
2023-02-16T03:06:32.388Z,99.36
2023-02-16T03:21:54.360Z,98.79
2023-02-16T03:37:00.321Z,98.99
2023-02-16T03:52:03.795Z,99.09
2023-02-16T04:07:07.490Z,100.00
2023-02-16T04:22:11.562Z,100.00
2023-02-16T04:37:15.131Z,100.00
2023-02-16T04:52:18.704Z,100.00
2023-02-16T05:07:21.932Z,100.00
2023-02-16T05:22:25.968Z,100.00
2023-02-16T05:37:29.126Z,100.00
2023-02-16T05:52:32.534Z,100.00
2023-02-16T06:07:35.915Z,100.00
2023-02-16T06:22:39.007Z,100.00
2023-02-16T06:37:42.381Z,100.00
2023-02-16T06:52:45.609Z,100.00
2023-02-16T07:07:48.952Z,100.00
2023-02-16T07:22:52.120Z,100.00
2023-02-16T07:37:55.952Z,100.00
2023-02-16T07:53:03.099Z,100.00
2023-02-16T08:08:06.650Z,100.00
2023-02-16T08:23:10.720Z,100.00
2023-02-16T08:38:13.958Z,100.00
2023-02-16T08:53:17.177Z,100.00
2023-02-16T09:08:20.578Z,100.00
2023-02-16T09:23:24.305Z,100.00
2023-02-16T09:38:28.526Z,100.00
2023-02-16T09:53:39.698Z,100.00
2023-02-16T10:08:56.176Z,100.00
2023-02-16T10:24:05.738Z,100.00
2023-02-16T10:39:38.552Z,100.00
2023-02-16T10:54:42.201Z,100.00
2023-02-16T11:09:48.241Z,100.00
2023-02-16T11:24:51.474Z,100.00
2023-02-16T11:39:59.010Z,100.00
2023-02-16T11:55:10.124Z,99.94
2023-02-16T12:10:24.741Z,99.89
2023-02-16T12:26:55.267Z,98.98
2023-02-16T12:42:44.321Z,98.60
2023-02-16T12:58:08.528Z,96.88
2023-02-16T13:13:18.086Z,93.51
2023-02-16T13:28:43.026Z,91.69
2023-02-16T13:43:55.491Z,87.13
2023-02-16T13:59:20.439Z,79.74
2023-02-16T14:14:35.396Z,71.40
2023-02-16T14:29:56.980Z,68.60
2023-02-16T14:45:32.275Z,70.33
2023-02-16T15:00:56.197Z,70.63
2023-02-16T15:16:03.716Z,72.50
2023-02-16T15:31:19.203Z,74.79
2023-02-16T15:46:32.323Z,76.49
2023-02-16T16:01:35.998Z,77.90
2023-02-16T16:16:44.125Z,81.05
2023-02-16T16:31:53.488Z,83.33
2023-02-16T16:46:57.233Z,83.95
2023-02-16T17:02:38.790Z,84.81
2023-02-16T17:17:58.176Z,85.95
2023-02-16T17:33:07.592Z,87.24
2023-02-16T17:49:25.727Z,89.19
2023-02-16T18:04:51.857Z,91.43
2023-02-16T18:20:00.929Z,92.41
2023-02-16T18:35:26.573Z,92.94
2023-02-16T18:50:48.925Z,94.25
2023-02-16T19:06:04.402Z,94.59
2023-02-16T19:21:14.175Z,94.79
2023-02-16T19:36:42.814Z,95.06
2023-02-16T19:51:53.231Z,95.22
2023-02-16T20:22:29.922Z,94.77
2023-02-16T20:37:47.454Z,94.32
2023-02-16T20:53:01.610Z,94.59
2023-02-16T21:08:08.636Z,94.92
2023-02-16T21:23:12.588Z,95.30
2023-02-16T21:38:21.225Z,95.02
2023-02-16T21:53:24.631Z,94.96
2023-02-16T22:08:27.902Z,96.08
2023-02-16T22:23:31.622Z,98.18
2023-02-16T22:38:34.862Z,98.16
2023-02-16T22:53:38.272Z,99.60
2023-02-16T23:08:42.890Z,99.85
2023-02-16T23:23:47.413Z,100.00
2023-02-16T23:38:50.602Z,100.00
2023-02-16T23:53:53.984Z,100.00
